Chemehuevi Valley, California
Current Conditions -  °F | °C
As of 1:56 AM on Friday 28 Nov 2014 (Local Time) from KEED Reporting Station
Clear Clear  
Wind Chill: 51°   Ceiling: Unl
Heat Index: 51°   Visibility: 10mi
Dew Point: 20°   Wind: 7mph
Humidity: 29%   Direction: 260°W
Pressure: 30.08"   Gusts: NA
Location:  34.5025°N, 114.671°W
Report Text: KEED 280956Z AUTO 26006KT 10SM CLR 11/M07 A3008 RMK AO2 SLP172 T01061067 $
Loading
Personal Weather Stations






























Interactive Weather Map New forecast layout! Learn more

10-Day Weather Forecast

Advertisements
Track Severe Weather on mobile